sensor_id;sensor_type;location;lat;lon;timestamp;pressure;altitude;pressure_sealevel;temperature;humidity
57894;BME280;43710;47.460;19.034;2022-07-18T04:09:59;101409.50;;;20.80;39.94
57894;BME280;43710;47.460;19.034;2022-07-18T04:13:02;101409.50;;;20.80;39.94
57894;BME280;43710;47.460;19.034;2022-07-18T04:16:04;101417.56;;;20.33;45.64
57894;BME280;43710;47.460;19.034;2022-07-18T04:19:07;101416.09;;;20.36;39.91
57894;BME280;43710;47.460;19.034;2022-07-18T04:22:09;101402.97;;;20.38;41.22
57894;BME280;43710;47.460;19.034;2022-07-18T04:25:12;101413.37;;;20.27;40.52
57894;BME280;43710;47.460;19.034;2022-07-18T04:28:15;101410.50;;;20.32;40.24
57894;BME280;43710;47.460;19.034;2022-07-18T04:31:17;101420.25;;;20.42;41.12
57894;BME280;43710;47.460;19.034;2022-07-18T04:34:19;101426.69;;;20.55;40.57
57894;BME280;43710;47.460;19.034;2022-07-18T04:37:22;101418.53;;;20.63;44.95
57894;BME280;43710;47.460;19.034;2022-07-18T04:40:24;101418.62;;;20.76;39.10
57894;BME280;43710;47.460;19.034;2022-07-18T04:43:26;101416.84;;;20.88;38.37
57894;BME280;43710;47.460;19.034;2022-07-18T04:46:28;101420.22;;;20.94;40.43
57894;BME280;43710;47.460;19.034;2022-07-18T04:49:31;101425.50;;;20.99;38.30
57894;BME280;43710;47.460;19.034;2022-07-18T04:52:42;101416.34;;;20.95;39.77
57894;BME280;43710;47.460;19.034;2022-07-18T04:55:44;101416.69;;;20.94;38.24
57894;BME280;43710;47.460;19.034;2022-07-18T04:58:47;101418.44;;;20.98;39.56
57894;BME280;43710;47.460;19.034;2022-07-18T05:01:50;101419.38;;;21.02;41.70
57894;BME280;43710;47.460;19.034;2022-07-18T05:04:52;101414.19;;;21.18;38.46
57894;BME280;43710;47.460;19.034;2022-07-18T05:07:55;101419.34;;;21.20;37.77
57894;BME280;43710;47.460;19.034;2022-07-18T05:10:57;101420.41;;;21.27;47.19
57894;BME280;43710;47.460;19.034;2022-07-18T05:13:59;101415.78;;;21.37;44.61
57894;BME280;43710;47.460;19.034;2022-07-18T05:17:02;101418.91;;;21.47;44.34
57894;BME280;43710;47.460;19.034;2022-07-18T05:20:07;101421.28;;;21.57;41.33
57894;BME280;43710;47.460;19.034;2022-07-18T05:23:09;101411.12;;;21.67;43.42
57894;BME280;43710;47.460;19.034;2022-07-18T05:26:12;101410.69;;;21.86;36.74
57894;BME280;43710;47.460;19.034;2022-07-18T05:29:15;101415.41;;;21.97;46.34
57894;BME280;43710;47.460;19.034;2022-07-18T05:32:17;101411.09;;;22.17;36.63
57894;BME280;43710;47.460;19.034;2022-07-18T05:35:21;101415.63;;;22.34;36.27
57894;BME280;43710;47.460;19.034;2022-07-18T05:38:23;101414.88;;;22.46;37.91
57894;BME280;43710;47.460;19.034;2022-07-18T05:41:26;101412.91;;;22.67;36.08
57894;BME280;43710;47.460;19.034;2022-07-18T05:44:29;101422.59;;;22.77;36.07
57894;BME280;43710;47.460;19.034;2022-07-18T05:47:31;101420.66;;;22.78;35.89
57894;BME280;43710;47.460;19.034;2022-07-18T05:50:33;101428.44;;;22.88;35.17
57894;BME280;43710;47.460;19.034;2022-07-18T05:53:36;101423.59;;;22.93;36.60
57894;BME280;43710;47.460;19.034;2022-07-18T05:56:38;101414.59;;;22.93;34.49
57894;BME280;43710;47.460;19.034;2022-07-18T05:59:40;101410.63;;;23.03;35.50
57894;BME280;43710;47.460;19.034;2022-07-18T06:02:42;101409.03;;;23.14;34.43
57894;BME280;43710;47.460;19.034;2022-07-18T06:05:45;101402.69;;;23.22;36.29
57894;BME280;43710;47.460;19.034;2022-07-18T06:08:47;101407.69;;;23.20;35.11
57894;BME280;43710;47.460;19.034;2022-07-18T06:11:49;101410.75;;;23.31;37.42
57894;BME280;43710;47.460;19.034;2022-07-18T06:14:52;101407.81;;;23.36;34.00
57894;BME280;43710;47.460;19.034;2022-07-18T06:17:54;101405.63;;;23.29;34.10
57894;BME280;43710;47.460;19.034;2022-07-18T06:20:56;101408.72;;;23.40;36.13
57894;BME280;43710;47.460;19.034;2022-07-18T06:23:58;101417.03;;;23.56;40.27
57894;BME280;43710;47.460;19.034;2022-07-18T06:27:00;101416.69;;;23.57;34.47
57894;BME280;43710;47.460;19.034;2022-07-18T06:30:04;101415.66;;;23.50;38.79
57894;BME280;43710;47.460;19.034;2022-07-18T06:33:07;101423.19;;;23.53;37.45
57894;BME280;43710;47.460;19.034;2022-07-18T06:36:10;101420.00;;;23.63;36.87
57894;BME280;43710;47.460;19.034;2022-07-18T06:39:13;101422.19;;;23.82;36.87
57894;BME280;43710;47.460;19.034;2022-07-18T06:42:18;101423.44;;;23.72;38.20
57894;BME280;43710;47.460;19.034;2022-07-18T06:45:20;101415.22;;;23.84;35.56
57894;BME280;43710;47.460;19.034;2022-07-18T06:48:23;101414.53;;;23.75;34.16
57894;BME280;43710;47.460;19.034;2022-07-18T06:51:25;101411.81;;;23.75;34.99
57894;BME280;43710;47.460;19.034;2022-07-18T06:54:28;101409.63;;;23.81;33.80
57894;BME280;43710;47.460;19.034;2022-07-18T06:57:30;101401.16;;;23.86;38.40
57894;BME280;43710;47.460;19.034;2022-07-18T07:00:32;101403.53;;;24.00;32.99
57894;BME280;43710;47.460;19.034;2022-07-18T07:03:35;101397.91;;;24.08;34.46
57894;BME280;43710;47.460;19.034;2022-07-18T07:06:37;101401.84;;;24.23;36.43
57894;BME280;43710;47.460;19.034;2022-07-18T07:09:40;101396.13;;;24.28;33.08
57894;BME280;43710;47.460;19.034;2022-07-18T07:12:47;101381.25;;;24.42;34.71
57894;BME280;43710;47.460;19.034;2022-07-18T07:15:50;101385.59;;;24.43;33.17
57894;BME280;43710;47.460;19.034;2022-07-18T07:18:52;101388.00;;;24.60;36.82
57894;BME280;43710;47.460;19.034;2022-07-18T07:21:54;101378.75;;;24.65;33.07
57894;BME280;43710;47.460;19.034;2022-07-18T07:24:57;101381.59;;;24.68;33.07
57894;BME280;43710;47.460;19.034;2022-07-18T07:27:59;101382.84;;;24.71;30.03
57894;BME280;43710;47.460;19.034;2022-07-18T07:31:01;101377.16;;;24.79;33.18
57894;BME280;43710;47.460;19.034;2022-07-18T07:34:03;101374.97;;;24.85;31.13
57894;BME280;43710;47.460;19.034;2022-07-18T07:37:08;101374.88;;;24.97;34.27
57894;BME280;43710;47.460;19.034;2022-07-18T07:40:10;101371.34;;;24.97;30.12
57894;BME280;43710;47.460;19.034;2022-07-18T07:43:15;101376.00;;;24.96;30.57
57894;BME280;43710;47.460;19.034;2022-07-18T07:46:17;101374.19;;;25.00;30.58
57894;BME280;43710;47.460;19.034;2022-07-18T07:49:20;101368.41;;;25.05;31.28
57894;BME280;43710;47.460;19.034;2022-07-18T07:52:22;101371.69;;;25.11;29.54
57894;BME280;43710;47.460;19.034;2022-07-18T07:55:26;101376.59;;;25.18;30.60
57894;BME280;43710;47.460;19.034;2022-07-18T07:58:30;101376.28;;;25.23;29.95
57894;BME280;43710;47.460;19.034;2022-07-18T08:01:32;101376.28;;;25.39;31.87
57894;BME280;43710;47.460;19.034;2022-07-18T08:04:35;101373.53;;;25.39;31.54
57894;BME280;43710;47.460;19.034;2022-07-18T08:07:37;101371.31;;;25.44;32.25
57894;BME280;43710;47.460;19.034;2022-07-18T08:10:40;101376.81;;;25.44;30.91
57894;BME280;43710;47.460;19.034;2022-07-18T08:13:45;101381.50;;;25.44;34.67
57894;BME280;43710;47.460;19.034;2022-07-18T08:16:47;101377.41;;;25.53;30.48
57894;BME280;43710;47.460;19.034;2022-07-18T08:19:49;101378.56;;;25.52;30.69
57894;BME280;43710;47.460;19.034;2022-07-18T08:23:03;101371.41;;;25.48;30.43
57894;BME280;43710;47.460;19.034;2022-07-18T08:26:06;101375.66;;;25.45;31.70
57894;BME280;43710;47.460;19.034;2022-07-18T08:29:08;101379.91;;;25.43;30.58
57894;BME280;43710;47.460;19.034;2022-07-18T08:32:10;101373.81;;;25.34;29.58
57894;BME280;43710;47.460;19.034;2022-07-18T08:35:14;101375.22;;;25.43;29.80
57894;BME280;43710;47.460;19.034;2022-07-18T08:38:16;101371.12;;;25.53;32.71
57894;BME280;43710;47.460;19.034;2022-07-18T08:41:22;101357.56;;;25.60;31.27
57894;BME280;43710;47.460;19.034;2022-07-18T08:44:24;101367.53;;;25.68;30.81
57894;BME280;43710;47.460;19.034;2022-07-18T08:47:28;101370.72;;;25.70;29.79
57894;BME280;43710;47.460;19.034;2022-07-18T08:50:31;101360.31;;;25.60;29.11
57894;BME280;43710;47.460;19.034;2022-07-18T08:53:35;101365.00;;;25.60;30.17
57894;BME280;43710;47.460;19.034;2022-07-18T08:56:39;101366.09;;;25.74;30.61
57894;BME280;43710;47.460;19.034;2022-07-18T08:59:41;101370.00;;;25.73;29.76
57894;BME280;43710;47.460;19.034;2022-07-18T09:02:43;101368.41;;;25.72;29.80
57894;BME280;43710;47.460;19.034;2022-07-18T09:05:46;101372.28;;;25.87;30.28
57894;BME280;43710;47.460;19.034;2022-07-18T09:08:59;101365.69;;;25.92;32.03
57894;BME280;43710;47.460;19.034;2022-07-18T09:12:05;101374.66;;;25.89;29.42
57894;BME280;43710;47.460;19.034;2022-07-18T09:15:08;101363.69;;;25.89;30.57
57894;BME280;43710;47.460;19.034;2022-07-18T09:18:12;101366.88;;;25.91;28.97
57894;BME280;43710;47.460;19.034;2022-07-18T09:21:36;101375.13;;;25.75;28.93
57894;BME280;43710;47.460;19.034;2022-07-18T09:24:54;101369.56;;;25.71;31.11
57894;BME280;43710;47.460;19.034;2022-07-18T09:27:58;101366.09;;;25.74;28.57
57894;BME280;43710;47.460;19.034;2022-07-18T09:31:16;101363.63;;;25.69;30.27
57894;BME280;43710;47.460;19.034;2022-07-18T09:34:33;101358.84;;;25.82;29.21
57894;BME280;43710;47.460;19.034;2022-07-18T09:37:37;101363.97;;;25.84;28.71
57894;BME280;43710;47.460;19.034;2022-07-18T09:40:46;101361.16;;;25.80;30.22
57894;BME280;43710;47.460;19.034;2022-07-18T09:43:49;101357.75;;;25.87;28.29
